createdAt,value
2019-03-12T00:04:10.321Z,8.03
2019-03-12T00:09:14.306Z,7.53
2019-03-12T00:14:18.358Z,8.47
2019-03-12T00:19:22.027Z,7.53
2019-03-12T00:24:25.719Z,9.00
2019-03-12T00:29:29.634Z,9.43
2019-03-12T00:34:33.299Z,9.60
2019-03-12T00:39:37.023Z,10.30
2019-03-12T00:44:40.853Z,10.00
2019-03-12T00:49:44.579Z,10.07
2019-03-12T00:54:48.233Z,10.17
2019-03-12T00:59:52.387Z,11.07
2019-03-12T01:04:56.148Z,10.47
2019-03-12T01:10:00.110Z,9.90
2019-03-12T01:15:03.998Z,9.93
2019-03-12T01:20:09.867Z,9.67
2019-03-12T01:25:13.889Z,9.67
2019-03-12T01:30:18.255Z,9.30
2019-03-12T01:35:21.970Z,9.70
2019-03-12T01:40:25.622Z,9.03
2019-03-12T01:45:29.609Z,8.17
2019-03-12T01:50:33.356Z,8.57
2019-03-12T01:55:37.173Z,8.00
2019-03-12T02:00:41.321Z,8.07
2019-03-12T02:05:44.992Z,8.30
2019-03-12T02:10:48.665Z,8.93
2019-03-12T02:15:52.372Z,7.73
2019-03-12T02:21:12.405Z,7.50
2019-03-12T02:26:16.078Z,7.37
2019-03-12T02:31:19.736Z,6.40
2019-03-12T02:36:23.903Z,5.60
2019-03-12T02:41:27.584Z,5.07
2019-03-12T02:46:31.501Z,4.77
2019-03-12T02:51:35.410Z,5.40
2019-03-12T02:56:39.211Z,5.63
2019-03-12T03:01:42.877Z,6.17
2019-03-12T03:07:06.486Z,6.37
2019-03-12T03:12:10.463Z,6.00
2019-03-12T03:17:15.949Z,6.57
2019-03-12T03:22:19.659Z,6.23
2019-03-12T03:27:23.347Z,7.03
2019-03-12T03:32:27.025Z,7.57
2019-03-12T03:37:30.767Z,8.57
2019-03-12T03:42:34.514Z,9.33
2019-03-12T03:47:38.543Z,10.00
2019-03-12T03:52:42.269Z,9.23
2019-03-12T03:57:46.146Z,10.57
2019-03-12T04:02:50.000Z,10.57
2019-03-12T04:07:53.668Z,10.43
2019-03-12T04:12:57.421Z,10.87
2019-03-12T04:18:01.323Z,11.27
2019-03-12T04:23:04.991Z,10.57
2019-03-12T04:28:08.671Z,12.07
2019-03-12T04:33:42.402Z,11.50
2019-03-12T04:38:46.069Z,9.93
2019-03-12T04:43:49.796Z,10.93
2019-03-12T04:48:53.466Z,10.83
2019-03-12T04:53:57.142Z,10.80
2019-03-12T04:59:00.886Z,10.83
2019-03-12T05:04:04.642Z,10.60
2019-03-12T05:09:09.121Z,10.60
2019-03-12T05:14:39.357Z,11.03
2019-03-12T05:19:44.411Z,11.17
2019-03-12T05:24:48.125Z,12.03
2019-03-12T05:29:52.134Z,11.80
2019-03-12T05:34:55.877Z,12.67
2019-03-12T05:39:59.615Z,12.40
2019-03-12T05:45:03.315Z,12.67
2019-03-12T05:50:07.227Z,13.43
2019-03-12T05:55:11.073Z,13.47
2019-03-12T06:00:15.259Z,13.43
2019-03-12T06:05:19.011Z,12.73
2019-03-12T06:10:22.791Z,13.47
2019-03-12T06:15:26.888Z,12.87
2019-03-12T06:20:30.771Z,12.80
2019-03-12T06:25:34.731Z,14.23
2019-03-12T06:30:49.430Z,12.77
2019-03-12T06:35:59.355Z,11.83
2019-03-12T06:41:18.613Z,12.67
2019-03-12T06:46:36.446Z,11.70
2019-03-12T06:51:58.267Z,11.93
2019-03-12T06:57:11.273Z,11.17
2019-03-12T07:02:31.739Z,10.40
2019-03-12T07:08:00.659Z,9.07
2019-03-12T07:13:22.744Z,9.57
2019-03-12T07:18:42.041Z,10.20
2019-03-12T07:24:04.015Z,8.83
2019-03-12T07:29:20.397Z,8.23
2019-03-12T07:34:42.087Z,7.97
2019-03-12T07:40:04.074Z,6.47
2019-03-12T07:45:14.335Z,6.07
2019-03-12T07:50:35.284Z,5.50
2019-03-12T07:55:47.257Z,5.43
2019-03-12T08:01:08.733Z,6.13
2019-03-12T08:06:29.522Z,4.67
2019-03-12T08:11:40.990Z,3.90
2019-03-12T08:17:09.677Z,3.80
2019-03-12T08:22:31.779Z,3.57
2019-03-12T08:27:48.161Z,3.57
2019-03-12T08:33:10.251Z,3.80
2019-03-12T08:38:21.674Z,3.23
2019-03-12T08:43:35.746Z,2.73
2019-03-12T08:48:45.894Z,2.80
2019-03-12T08:54:07.562Z,2.90
2019-03-12T08:59:42.677Z,3.07
2019-03-12T09:04:56.388Z,2.13
2019-03-12T09:10:13.564Z,1.90
2019-03-12T09:15:34.933Z,2.30
2019-03-12T09:20:46.313Z,2.00
2019-03-12T09:26:00.501Z,2.10
2019-03-12T09:31:22.582Z,2.33
2019-03-12T09:36:44.072Z,2.10
2019-03-12T09:42:04.799Z,2.00
2019-03-12T09:47:23.180Z,2.27
2019-03-12T09:52:43.470Z,1.83
2019-03-12T09:58:02.659Z,1.60
2019-03-12T10:03:25.518Z,1.67
2019-03-12T10:08:48.366Z,1.50
2019-03-12T10:14:05.429Z,1.50
2019-03-12T10:19:46.600Z,1.90
2019-03-12T10:25:14.507Z,1.57
2019-03-12T10:30:32.949Z,1.00
2019-03-12T10:35:50.497Z,1.47
2019-03-12T10:41:01.762Z,1.73
2019-03-12T10:46:31.034Z,0.90
2019-03-12T10:51:34.742Z,1.13
2019-03-12T10:56:38.535Z,1.00
2019-03-12T11:01:42.334Z,1.17
2019-03-12T11:06:46.031Z,1.40
2019-03-12T11:11:49.818Z,1.33
2019-03-12T11:17:01.558Z,1.17
2019-03-12T11:22:05.213Z,1.20
2019-03-12T11:27:10.459Z,1.00
2019-03-12T11:32:14.182Z,1.00
2019-03-12T11:37:17.857Z,1.00
2019-03-12T11:42:21.646Z,0.90
2019-03-12T11:47:25.744Z,1.20
2019-03-12T11:52:29.452Z,1.00
2019-03-12T11:57:33.411Z,1.37
2019-03-12T12:02:37.352Z,1.23
2019-03-12T12:07:41.304Z,1.10
2019-03-12T12:12:45.046Z,1.30
2019-03-12T12:17:49.479Z,1.20
2019-03-12T12:22:53.734Z,1.10
2019-03-12T12:27:57.605Z,1.00
2019-03-12T12:33:01.275Z,1.50
2019-03-12T12:38:04.964Z,1.37
2019-03-12T12:43:08.710Z,1.50
2019-03-12T12:48:12.756Z,1.47
2019-03-12T12:53:16.786Z,1.40
2019-03-12T12:58:20.469Z,1.50
2019-03-12T13:03:24.225Z,1.40
2019-03-12T13:08:28.049Z,1.40
2019-03-12T13:13:32.181Z,1.43
2019-03-12T13:18:35.982Z,1.40
2019-03-12T13:23:40.054Z,2.57
2019-03-12T13:28:44.988Z,1.40
2019-03-12T13:33:49.106Z,1.50
2019-03-12T13:38:52.850Z,1.60
2019-03-12T13:43:56.826Z,1.43
2019-03-12T13:49:00.721Z,1.23
2019-03-12T13:54:04.869Z,1.30
2019-03-12T13:59:08.730Z,1.23
2019-03-12T14:04:12.530Z,1.10
2019-03-12T14:09:16.286Z,1.17
2019-03-12T14:14:20.203Z,1.17
2019-03-12T14:19:27.148Z,1.30
2019-03-12T14:24:31.204Z,1.20
2019-03-12T14:29:35.135Z,1.10
2019-03-12T14:34:39.236Z,1.00
2019-03-12T14:39:43.238Z,1.10
2019-03-12T14:44:47.046Z,1.10
2019-03-12T14:49:51.082Z,1.00
2019-03-12T14:54:57.199Z,1.23
2019-03-12T15:00:01.065Z,0.87
2019-03-12T15:05:05.809Z,0.80
2019-03-12T15:10:10.633Z,1.70
2019-03-12T15:15:14.869Z,1.40
2019-03-12T15:20:18.597Z,1.30
2019-03-12T15:25:22.375Z,1.90
2019-03-12T15:30:26.041Z,1.27
2019-03-12T15:35:29.789Z,2.93
2019-03-12T15:40:33.712Z,0.83
2019-03-12T15:45:37.422Z,1.70
2019-03-12T15:50:41.082Z,1.00
2019-03-12T15:55:45.038Z,1.30
2019-03-12T16:00:48.780Z,1.00
2019-03-12T16:05:52.608Z,1.30
2019-03-12T16:10:58.293Z,1.40
2019-03-12T16:16:02.900Z,1.23
2019-03-12T16:21:06.898Z,1.00
2019-03-12T16:26:10.669Z,1.40
2019-03-12T16:31:14.415Z,1.87
2019-03-12T16:36:18.341Z,1.50
2019-03-12T16:41:22.281Z,1.40
2019-03-12T16:46:26.039Z,1.53
2019-03-12T16:51:30.037Z,1.57
2019-03-12T16:56:44.664Z,1.37
2019-03-12T17:01:39.166Z,1.80
2019-03-12T17:06:42.841Z,1.70
2019-03-12T17:11:47.055Z,2.10
2019-03-12T17:16:50.984Z,1.43
2019-03-12T17:21:54.825Z,1.77
2019-03-12T17:26:58.540Z,1.70
2019-03-12T17:32:02.599Z,1.90
2019-03-12T17:37:06.293Z,1.90
2019-03-12T17:42:10.216Z,1.33
2019-03-12T17:47:13.879Z,1.73
2019-03-12T17:52:21.942Z,2.53
2019-03-12T17:57:25.766Z,2.00
2019-03-12T18:02:41.593Z,2.23
2019-03-12T18:07:35.414Z,2.27
2019-03-12T18:12:39.103Z,2.30
2019-03-12T18:17:42.962Z,2.23
2019-03-12T18:22:46.882Z,2.73
2019-03-12T18:27:50.579Z,2.00
2019-03-12T18:32:54.350Z,2.70
2019-03-12T18:37:58.117Z,2.50
2019-03-12T18:43:02.277Z,2.43
2019-03-12T18:48:06.582Z,2.23
2019-03-12T18:53:10.820Z,2.43
2019-03-12T18:58:14.986Z,2.10
2019-03-12T19:03:18.790Z,1.93
2019-03-12T19:08:22.667Z,2.40
2019-03-12T19:13:26.709Z,2.20
2019-03-12T19:18:30.461Z,2.13
2019-03-12T19:23:35.052Z,2.13
2019-03-12T19:28:38.722Z,2.80
2019-03-12T19:33:42.733Z,2.37
2019-03-12T19:38:46.587Z,2.40
2019-03-12T19:43:50.320Z,2.50
2019-03-12T19:48:54.010Z,2.37
2019-03-12T19:53:57.886Z,2.30
2019-03-12T19:59:01.671Z,2.60
2019-03-12T20:04:05.454Z,2.90
2019-03-12T20:09:10.974Z,2.30
2019-03-12T20:14:50.940Z,2.10
2019-03-12T20:20:57.386Z,2.70
2019-03-12T20:26:42.389Z,2.23
2019-03-12T20:32:38.990Z,2.50
2019-03-12T20:38:19.383Z,2.77
2019-03-12T20:43:57.580Z,2.90
2019-03-12T20:49:44.490Z,2.33
2019-03-12T20:55:35.078Z,2.40
2019-03-12T21:01:06.797Z,3.20
2019-03-12T21:07:07.066Z,2.83
2019-03-12T21:12:47.329Z,2.47
2019-03-12T21:18:27.557Z,3.67
2019-03-12T21:24:04.879Z,2.80
2019-03-12T21:29:43.137Z,2.70
2019-03-12T21:34:49.528Z,2.60
2019-03-12T21:39:56.022Z,3.27
2019-03-12T21:45:00.004Z,2.90
2019-03-12T21:50:04.068Z,2.80
2019-03-12T21:55:09.158Z,2.97
2019-03-12T22:00:14.398Z,3.03
2019-03-12T22:05:18.078Z,2.60
2019-03-12T22:10:21.913Z,3.10
2019-03-12T22:15:25.798Z,3.53
2019-03-12T22:20:29.693Z,3.20
2019-03-12T22:25:33.622Z,3.47
2019-03-12T22:30:37.282Z,3.33
2019-03-12T22:35:41.020Z,3.70
2019-03-12T22:40:45.126Z,3.33
2019-03-12T22:45:48.802Z,3.73
2019-03-12T22:50:52.498Z,3.37
2019-03-12T22:55:56.326Z,3.73
2019-03-12T23:01:00.284Z,3.60
2019-03-12T23:06:04.028Z,3.20
2019-03-12T23:11:07.874Z,4.00
2019-03-12T23:16:11.645Z,4.20
2019-03-12T23:21:15.321Z,4.77
2019-03-12T23:26:19.085Z,4.77
2019-03-12T23:31:23.381Z,3.70
2019-03-12T23:36:27.308Z,2.97
2019-03-12T23:41:31.031Z,3.70
2019-03-12T23:46:34.830Z,2.97
2019-03-12T23:51:38.501Z,2.83
2019-03-12T23:56:42.293Z,3.00
